Time;durP1;ratioP1;P1;durP2;ratioP2;P2;SDS_P1;SDS_P2;PMS_P1;PMS_P2;Temp;Humidity;BMP_temperature;BMP_pressure;BME280_temperature;BME280_humidity;BME280_pressure;Samples;Min_cycle;Max_cycle;Signal;HPM_P1;HPM_P2
2021/03/14 00:00:57;;;;;;;4.47;1.33;;;6.10;99.90;;;;;;4987314;28;20460;-47
2021/03/14 00:03:27;;;;;;;5.10;2.17;;;6.10;99.90;;;;;;4997975;28;20803;-46
2021/03/14 00:05:58;;;;;;;2.33;1.30;;;6.20;99.90;;;;;;4997747;28;20950;-49
2021/03/14 00:08:28;;;;;;;1.30;0.93;;;6.20;99.90;;;;;;4988485;28;20920;-48
2021/03/14 00:10:58;;;;;;;2.87;1.27;;;6.10;99.90;;;;;;4994939;28;20461;-50
2021/03/14 00:13:31;;;;;;;1.33;1.23;;;6.10;99.90;;;;;;4995611;28;20474;-50
2021/03/14 00:16:01;;;;;;;2.27;1.23;;;6.20;99.90;;;;;;4999789;28;20447;-53
2021/03/14 00:18:32;;;;;;;3.47;1.30;;;6.10;99.90;;;;;;4985328;28;20705;-49
2021/03/14 00:21:01;;;;;;;2.00;1.30;;;6.10;99.90;;;;;;4997076;28;20490;-50
2021/03/14 00:23:39;;;;;;;2.53;1.20;;;6.10;99.90;;;;;;5005312;28;20450;-49
2021/03/14 00:26:08;;;;;;;2.00;1.20;;;6.20;99.90;;;;;;5011531;28;21031;-53
2021/03/14 00:28:36;;;;;;;3.30;1.23;;;6.20;99.90;;;;;;5011471;28;20546;-52
2021/03/14 00:31:06;;;;;;;1.50;1.37;;;6.20;99.90;;;;;;5003921;28;20501;-52
2021/03/14 00:33:35;;;;;;;7.27;1.50;;;6.20;99.90;;;;;;5008640;28;20485;-52
2021/03/14 00:36:03;;;;;;;2.47;1.10;;;6.20;99.90;;;;;;4998359;28;20423;-50
2021/03/14 00:38:31;;;;;;;4.20;1.30;;;6.20;99.90;;;;;;5002680;28;20509;-53
2021/03/14 00:41:00;;;;;;;1.97;1.63;;;6.20;99.90;;;;;;5010198;28;20856;-50
2021/03/14 00:43:29;;;;;;;2.10;1.30;;;6.20;99.90;;;;;;5004396;28;20807;-51
2021/03/14 00:45:58;;;;;;;4.00;1.60;;;6.20;99.90;;;;;;5001872;28;20470;-53
2021/03/14 00:48:30;;;;;;;2.60;1.63;;;6.30;99.90;;;;;;4997105;28;20527;-53
2021/03/14 00:50:59;;;;;;;6.60;2.20;;;6.20;99.90;;;;;;5010189;28;20840;-49
2021/03/14 00:53:28;;;;;;;4.23;3.00;;;6.20;99.90;;;;;;5001852;28;20523;-51
2021/03/14 00:55:56;;;;;;;3.00;1.73;;;6.20;99.90;;;;;;5006130;28;20490;-48
2021/03/14 00:58:25;;;;;;;1.50;0.90;;;6.20;99.90;;;;;;4996642;28;20558;-48
2021/03/14 01:00:53;;;;;;;6.60;1.60;;;6.20;99.90;;;;;;5006429;28;20487;-51
2021/03/14 01:03:25;;;;;;;2.70;1.60;;;6.10;99.90;;;;;;5011112;28;21011;-50
2021/03/14 01:05:54;;;;;;;5.10;1.30;;;6.10;99.90;;;;;;5003339;28;20488;-48
2021/03/14 01:08:23;;;;;;;1.83;1.23;;;6.10;99.90;;;;;;5002292;28;20796;-51
2021/03/14 01:10:51;;;;;;;1.40;1.00;;;6.20;99.90;;;;;;5009922;28;20457;-54
2021/03/14 01:13:19;;;;;;;3.67;1.37;;;6.20;99.90;;;;;;4999186;28;20490;-52
2021/03/14 01:15:49;;;;;;;1.77;1.67;;;6.20;99.90;;;;;;5001023;28;20513;-50
2021/03/14 01:18:18;;;;;;;2.47;1.63;;;6.30;99.90;;;;;;5004234;28;20514;-51
2021/03/14 01:20:48;;;;;;;2.53;1.60;;;6.20;99.90;;;;;;5007222;28;20529;-47
2021/03/14 01:23:18;;;;;;;4.80;1.60;;;6.20;99.90;;;;;;5012334;28;20466;-49
2021/03/14 01:25:49;;;;;;;3.03;1.47;;;6.30;99.90;;;;;;5003154;28;20877;-49
2021/03/14 01:28:20;;;;;;;3.27;1.50;;;6.30;99.90;;;;;;4999293;28;20542;-48
2021/03/14 01:30:52;;;;;;;1.87;1.67;;;6.30;99.90;;;;;;5007109;28;20458;-49
2021/03/14 01:33:21;;;;;;;1.40;1.10;;;6.30;99.90;;;;;;4995066;28;20838;-49
2021/03/14 01:35:49;;;;;;;2.70;1.60;;;6.30;99.90;;;;;;5012334;28;20450;-48
2021/03/14 01:38:18;;;;;;;9.53;1.73;;;6.30;99.90;;;;;;5007054;28;21070;-50
2021/03/14 01:40:47;;;;;;;3.10;2.40;;;6.30;99.90;;;;;;4997230;28;20510;-49
2021/03/14 01:43:15;;;;;;;2.53;1.57;;;6.20;99.90;;;;;;5015946;28;20464;-52
2021/03/14 01:45:44;;;;;;;2.83;1.53;;;6.20;99.90;;;;;;5007752;28;20904;-53
2021/03/14 01:48:20;;;;;;;2.87;1.20;;;6.20;99.90;;;;;;5000441;28;20914;-49
2021/03/14 01:50:49;;;;;;;4.40;1.77;;;6.20;99.90;;;;;;5004305;28;20804;-53
2021/03/14 01:53:21;;;;;;;3.23;2.73;;;6.20;99.90;;;;;;4999443;28;20522;-52
2021/03/14 01:55:51;;;;;;;6.73;2.43;;;6.20;99.90;;;;;;5009817;28;20446;-50
2021/03/14 01:58:21;;;;;;;3.90;1.57;;;6.20;99.90;;;;;;5009838;28;20983;-49
2021/03/14 02:00:52;;;;;;;4.30;1.23;;;6.10;99.90;;;;;;5014004;28;20517;-52
2021/03/14 02:03:22;;;;;;;2.60;1.60;;;6.10;99.90;;;;;;4981208;28;20487;-54
2021/03/14 02:05:50;;;;;;;2.70;1.50;;;6.20;99.90;;;;;;4998846;28;20546;-49
2021/03/14 02:08:21;;;;;;;3.70;1.87;;;6.10;99.90;;;;;;5004715;28;20431;-52
2021/03/14 02:10:53;;;;;;;3.20;1.63;;;6.20;99.90;;;;;;5001586;28;20878;-54
2021/03/14 02:13:25;;;;;;;4.20;2.00;;;6.20;99.90;;;;;;5003746;28;20788;-54
2021/03/14 02:15:58;;;;;;;2.30;1.63;;;6.20;99.90;;;;;;5005774;28;20451;-52
2021/03/14 02:18:28;;;;;;;5.40;3.17;;;6.20;99.90;;;;;;4995865;28;20508;-53
2021/03/14 02:20:57;;;;;;;3.10;1.70;;;6.20;99.90;;;;;;5000173;28;20461;-49
2021/03/14 02:23:42;;;;;;;4.87;1.70;;;6.20;99.90;;;;;;5015593;28;20945;-51
2021/03/14 02:26:16;;;;;;;4.33;1.90;;;6.20;99.90;;;;;;5011378;28;20478;-51
2021/03/14 02:28:47;;;;;;;3.57;2.13;;;6.20;99.90;;;;;;5010622;28;20434;-49
2021/03/14 02:31:19;;;;;;;3.53;1.77;;;6.30;99.90;;;;;;5005162;28;20452;-50
2021/03/14 02:33:53;;;;;;;5.23;1.67;;;6.30;99.90;;;;;;5007726;28;20912;-49
2021/03/14 02:36:23;;;;;;;6.17;1.97;;;6.40;99.90;;;;;;5004484;28;20518;-51
2021/03/14 02:38:53;;;;;;;3.93;1.90;;;6.40;99.90;;;;;;5011621;28;20506;-48
2021/03/14 02:41:23;;;;;;;2.07;1.70;;;6.40;99.90;;;;;;5001746;28;20470;-49
2021/03/14 02:43:53;;;;;;;4.47;2.33;;;6.30;99.90;;;;;;4998101;28;20518;-52
2021/03/14 02:46:23;;;;;;;3.67;1.80;;;6.30;99.90;;;;;;5003897;28;20545;-50
2021/03/14 02:48:51;;;;;;;2.17;1.70;;;6.30;99.90;;;;;;4995963;28;20481;-51
2021/03/14 02:51:20;;;;;;;3.20;2.57;;;6.30;99.90;;;;;;5000402;28;20926;-53
2021/03/14 02:53:49;;;;;;;2.47;2.27;;;6.20;99.90;;;;;;4997847;28;20971;-51
2021/03/14 02:56:17;;;;;;;4.20;2.70;;;6.20;99.90;;;;;;5000342;28;20447;-52
2021/03/14 02:58:47;;;;;;;5.17;3.07;;;6.10;99.90;;;;;;5006331;28;20469;-47
2021/03/14 03:01:17;;;;;;;4.30;2.20;;;6.10;99.90;;;;;;5005920;28;20439;-48
2021/03/14 03:03:46;;;;;;;3.63;2.37;;;6.10;99.90;;;;;;5004380;28;20842;-51
2021/03/14 03:06:15;;;;;;;4.33;2.70;;;6.10;99.90;;;;;;5009339;28;20540;-49
2021/03/14 03:08:46;;;;;;;4.10;2.87;;;6.10;99.90;;;;;;5013611;28;20513;-47
2021/03/14 03:11:17;;;;;;;5.83;2.33;;;6.10;99.90;;;;;;4996228;28;20902;-52
2021/03/14 03:13:46;;;;;;;3.77;2.27;;;6.00;99.90;;;;;;5007877;28;20670;-52
2021/03/14 03:16:19;;;;;;;2.73;2.13;;;5.90;99.90;;;;;;5009666;28;20513;-50
2021/03/14 03:18:48;;;;;;;4.93;2.43;;;5.90;99.90;;;;;;5017769;28;20492;-46
2021/03/14 03:21:18;;;;;;;7.40;3.87;;;5.90;99.90;;;;;;5016577;28;20469;-52
2021/03/14 03:23:47;;;;;;;6.33;2.17;;;5.80;99.90;;;;;;5006219;28;20841;-46
2021/03/14 03:26:17;;;;;;;11.23;3.13;;;5.70;99.90;;;;;;5002186;28;20859;-53
2021/03/14 03:28:46;;;;;;;4.27;2.77;;;5.70;99.90;;;;;;5009579;28;20452;-51
2021/03/14 03:31:15;;;;;;;2.70;2.50;;;5.60;99.90;;;;;;5005131;28;20464;-53
2021/03/14 03:33:44;;;;;;;6.07;3.23;;;5.60;99.90;;;;;;5019643;28;20510;-47
2021/03/14 03:36:15;;;;;;;3.63;2.47;;;5.50;99.90;;;;;;5016996;28;20450;-50
2021/03/14 03:38:44;;;;;;;2.03;1.83;;;5.50;99.90;;;;;;5011276;28;20882;-48
2021/03/14 03:41:15;;;;;;;2.00;1.80;;;5.40;99.90;;;;;;5013414;28;20454;-49
2021/03/14 03:43:46;;;;;;;3.30;2.17;;;5.40;99.90;;;;;;5002663;28;20515;-48
2021/03/14 03:46:19;;;;;;;2.80;2.13;;;5.30;99.90;;;;;;5017734;28;20492;-48
2021/03/14 03:48:49;;;;;;;2.60;2.40;;;5.20;99.90;;;;;;5017812;28;20493;-47
2021/03/14 03:51:20;;;;;;;7.43;2.57;;;5.20;99.90;;;;;;5012138;28;20521;-47
2021/03/14 03:53:51;;;;;;;8.33;1.90;;;5.20;99.90;;;;;;5016441;28;20668;-48
2021/03/14 03:56:19;;;;;;;3.23;1.73;;;5.10;99.90;;;;;;5005760;28;20462;-49
2021/03/14 03:58:49;;;;;;;2.37;1.40;;;5.10;99.90;;;;;;5000531;28;20463;-46
2021/03/14 04:01:19;;;;;;;4.57;1.50;;;5.10;99.90;;;;;;5000399;28;20469;-51
2021/03/14 04:03:51;;;;;;;1.83;1.73;;;5.00;99.90;;;;;;5001895;28;20447;-52
2021/03/14 04:06:20;;;;;;;2.73;1.43;;;5.10;99.90;;;;;;5005079;28;20477;-49
2021/03/14 04:08:49;;;;;;;4.83;1.90;;;5.10;99.90;;;;;;5005565;28;20420;-53
2021/03/14 04:11:20;;;;;;;2.10;1.17;;;5.10;99.90;;;;;;5000182;28;20423;-50
2021/03/14 04:13:48;;;;;;;8.63;1.43;;;5.10;99.90;;;;;;5005135;28;20840;-51
2021/03/14 04:16:19;;;;;;;1.50;1.20;;;5.10;99.90;;;;;;5002270;28;20455;-51
2021/03/14 04:18:49;;;;;;;1.63;1.47;;;5.10;99.90;;;;;;5008131;28;20498;-51
2021/03/14 04:21:18;;;;;;;2.83;1.53;;;5.10;99.90;;;;;;5004700;28;20505;-53
2021/03/14 04:23:50;;;;;;;5.33;1.93;;;5.00;99.90;;;;;;5000917;28;20939;-46
2021/03/14 04:26:20;;;;;;;1.57;1.17;;;5.00;99.90;;;;;;5001341;28;20462;-51
2021/03/14 04:28:47;;;;;;;0.93;0.70;;;4.90;99.90;;;;;;5004164;28;20449;-48
2021/03/14 04:31:14;;;;;;;1.53;0.93;;;4.90;99.90;;;;;;5014831;28;20453;-51
2021/03/14 04:33:43;;;;;;;1.00;0.60;;;4.90;99.90;;;;;;5005260;28;20451;-52
2021/03/14 04:36:11;;;;;;;1.63;1.10;;;4.90;99.90;;;;;;5008474;28;20461;-53
2021/03/14 04:38:39;;;;;;;1.47;0.80;;;4.90;99.90;;;;;;5003977;28;20435;-49
2021/03/14 04:41:07;;;;;;;1.10;0.90;;;4.80;99.90;;;;;;5000748;28;20431;-54
2021/03/14 04:43:34;;;;;;;1.43;1.00;;;4.80;99.90;;;;;;5009458;28;20490;-52
2021/03/14 04:46:01;;;;;;;2.27;0.90;;;4.80;99.90;;;;;;5010948;28;20472;-51
2021/03/14 04:48:28;;;;;;;1.10;0.90;;;4.70;99.90;;;;;;5004636;28;20509;-48
2021/03/14 04:50:56;;;;;;;1.43;0.90;;;4.70;99.90;;;;;;5003844;28;20474;-53
2021/03/14 04:53:26;;;;;;;1.37;0.90;;;4.70;99.90;;;;;;4998693;28;20450;-47
2021/03/14 04:55:54;;;;;;;1.00;0.80;;;4.70;99.90;;;;;;5002983;28;20469;-49
2021/03/14 04:58:23;;;;;;;1.47;0.90;;;4.60;99.90;;;;;;5010214;28;20465;-50
2021/03/14 05:00:50;;;;;;;2.40;0.97;;;4.60;99.90;;;;;;4999811;28;20455;-49
2021/03/14 05:03:21;;;;;;;1.63;1.17;;;4.60;99.90;;;;;;5011082;28;20474;-47
2021/03/14 05:05:49;;;;;;;1.00;0.80;;;4.60;99.90;;;;;;5004254;28;20478;-48
2021/03/14 05:08:20;;;;;;;2.20;0.90;;;4.60;99.90;;;;;;5009448;28;20457;-49
2021/03/14 05:10:49;;;;;;;1.30;1.07;;;4.60;99.90;;;;;;5017228;28;20441;-51
2021/03/14 05:13:16;;;;;;;1.00;0.87;;;4.60;99.90;;;;;;5000193;28;20517;-51
2021/03/14 05:15:43;;;;;;;1.63;0.80;;;4.60;99.90;;;;;;5002119;28;20447;-52
2021/03/14 05:18:11;;;;;;;1.87;0.80;;;4.50;99.90;;;;;;5010993;28;20485;-49
2021/03/14 05:20:39;;;;;;;1.63;1.20;;;4.50;99.90;;;;;;5014642;28;20426;-51
2021/03/14 05:23:06;;;;;;;1.40;1.00;;;4.50;99.90;;;;;;4996251;28;20439;-50
2021/03/14 05:25:34;;;;;;;2.03;1.30;;;4.50;99.90;;;;;;5010089;28;20477;-47
2021/03/14 05:28:03;;;;;;;1.10;0.90;;;4.50;99.90;;;;;;5005553;28;20450;-48
2021/03/14 05:30:34;;;;;;;1.43;1.10;;;4.50;99.90;;;;;;4999287;28;20920;-52
2021/03/14 05:33:03;;;;;;;1.30;0.90;;;4.50;99.90;;;;;;5005209;28;20497;-52
2021/03/14 05:35:32;;;;;;;2.03;0.70;;;4.50;99.90;;;;;;5003284;28;20629;-49
2021/03/14 05:38:01;;;;;;;1.37;1.23;;;4.50;99.90;;;;;;4999994;28;20916;-51
2021/03/14 05:40:31;;;;;;;1.30;0.90;;;4.50;99.90;;;;;;5007009;28;20853;-53
2021/03/14 05:42:59;;;;;;;1.00;0.80;;;4.60;99.90;;;;;;5005298;28;20467;-49
2021/03/14 05:45:28;;;;;;;1.30;0.97;;;4.50;99.90;;;;;;5003889;28;20499;-49
2021/03/14 05:47:59;;;;;;;2.13;0.90;;;4.50;99.90;;;;;;5000927;28;20824;-47
2021/03/14 05:50:29;;;;;;;1.67;0.90;;;4.50;99.90;;;;;;5003161;28;20777;-47
2021/03/14 05:53:00;;;;;;;1.20;0.83;;;4.50;99.90;;;;;;5010705;28;20410;-49
2021/03/14 05:55:28;;;;;;;1.33;1.00;;;4.60;99.90;;;;;;5003732;28;20470;-49
2021/03/14 05:57:57;;;;;;;1.23;1.10;;;4.60;99.90;;;;;;5011002;28;20466;-53
2021/03/14 06:00:28;;;;;;;1.13;0.90;;;4.50;99.90;;;;;;4995538;28;20447;-50
2021/03/14 06:02:58;;;;;;;1.00;0.80;;;4.50;99.90;;;;;;5006335;28;20449;-50
2021/03/14 06:05:25;;;;;;;2.20;1.17;;;4.50;99.90;;;;;;4998022;28;20497;-49
2021/03/14 06:07:53;;;;;;;1.33;0.90;;;4.50;99.90;;;;;;5002024;28;20498;-50
2021/03/14 06:10:23;;;;;;;1.47;0.90;;;4.50;99.90;;;;;;5007494;28;20546;-48
2021/03/14 06:12:54;;;;;;;1.73;0.90;;;4.50;99.90;;;;;;5006149;28;20494;-47
2021/03/14 06:15:22;;;;;;;1.23;0.90;;;4.50;99.90;;;;;;5005035;28;20447;-49
2021/03/14 06:17:51;;;;;;;1.30;1.10;;;4.50;99.90;;;;;;5002555;28;20438;-51
2021/03/14 06:20:41;;;;;;;1.30;0.93;;;4.50;99.90;;;;;;5006319;28;20454;-53
2021/03/14 06:23:11;;;;;;;1.50;1.13;;;4.60;99.90;;;;;;5008410;28;20434;-52
2021/03/14 06:25:40;;;;;;;1.83;1.43;;;4.50;99.90;;;;;;5004262;28;20550;-47
2021/03/14 06:28:09;;;;;;;1.10;0.97;;;4.60;99.90;;;;;;4993661;28;20514;-51
2021/03/14 06:30:38;;;;;;;1.80;1.53;;;4.60;99.90;;;;;;4992961;28;20478;-48
2021/03/14 06:33:09;;;;;;;1.60;1.40;;;4.50;99.90;;;;;;4997244;28;20569;-50
2021/03/14 06:35:45;;;;;;;1.87;1.17;;;4.50;99.90;;;;;;4999450;28;20757;-48
2021/03/14 06:38:26;;;;;;;2.23;1.37;;;4.50;99.90;;;;;;4991835;28;20485;-47
2021/03/14 06:41:10;;;;;;;3.40;1.73;;;4.60;99.90;;;;;;5004418;28;20454;-50
2021/03/14 06:43:40;;;;;;;1.90;1.60;;;4.60;99.90;;;;;;4992110;28;20843;-47
2021/03/14 06:46:24;;;;;;;1.50;1.30;;;4.60;99.90;;;;;;4997089;28;20506;-49
2021/03/14 06:49:08;;;;;;;1.30;1.10;;;4.60;99.90;;;;;;4994142;28;20564;-46
2021/03/14 06:51:38;;;;;;;2.80;1.30;;;4.70;99.90;;;;;;4991086;28;20443;-47
2021/03/14 06:54:23;;;;;;;2.47;1.63;;;4.80;99.90;;;;;;5000404;28;20442;-51
2021/03/14 06:57:21;;;;;;;2.17;1.90;;;4.70;99.90;;;;;;4991242;28;20511;-57
2021/03/14 06:59:51;;;;;;;2.07;1.77;;;4.80;99.90;;;;;;5002341;28;20455;-50
2021/03/14 07:02:22;;;;;;;1.87;1.43;;;4.80;99.90;;;;;;4996937;28;20522;-49
2021/03/14 07:04:58;;;;;;;1.27;1.17;;;4.80;99.90;;;;;;5002444;28;20549;-49
2021/03/14 07:07:30;;;;;;;2.27;1.70;;;4.80;99.90;;;;;;4995848;28;20481;-55
2021/03/14 07:10:04;;;;;;;1.43;1.00;;;4.80;99.90;;;;;;4995205;28;20758;-50
2021/03/14 07:12:35;;;;;;;1.93;1.40;;;4.80;99.90;;;;;;5005640;28;20826;-47
2021/03/14 07:15:15;;;;;;;2.40;1.90;;;4.80;99.90;;;;;;4995129;28;21297;-50
2021/03/14 07:17:51;;;;;;;2.40;1.57;;;4.80;99.90;;;;;;5000497;28;20550;-48
2021/03/14 07:20:21;;;;;;;1.57;1.27;;;4.80;99.90;;;;;;4991269;28;20522;-51
2021/03/14 07:22:58;;;;;;;1.63;1.30;;;4.80;99.90;;;;;;4993250;28;20454;-49
2021/03/14 07:25:27;;;;;;;1.67;1.33;;;4.80;99.90;;;;;;4993128;28;20970;-52
2021/03/14 07:27:56;;;;;;;2.20;1.47;;;4.80;99.90;;;;;;5006708;28;20455;-49
2021/03/14 07:30:26;;;;;;;1.37;1.20;;;4.80;99.90;;;;;;4998665;28;20529;-51
2021/03/14 07:32:55;;;;;;;1.50;1.20;;;4.80;99.90;;;;;;5009317;28;20525;-49
2021/03/14 07:35:26;;;;;;;1.73;1.57;;;4.80;99.90;;;;;;5005221;28;20795;-47
2021/03/14 07:37:56;;;;;;;1.67;1.33;;;4.70;99.90;;;;;;4998791;28;20844;-47
2021/03/14 07:40:26;;;;;;;2.13;1.60;;;4.80;99.90;;;;;;5001779;28;20480;-47
2021/03/14 07:43:00;;;;;;;2.63;1.30;;;4.80;99.90;;;;;;4995241;28;20450;-48
2021/03/14 07:45:29;;;;;;;3.30;1.20;;;4.80;99.90;;;;;;5002059;28;20558;-49
2021/03/14 07:47:58;;;;;;;1.40;1.30;;;4.80;99.90;;;;;;5001339;28;20786;-47
2021/03/14 07:50:31;;;;;;;2.10;1.93;;;4.80;99.90;;;;;;5006002;28;20485;-51
2021/03/14 07:53:05;;;;;;;3.20;1.97;;;4.80;99.90;;;;;;4999492;28;20844;-51
2021/03/14 07:55:33;;;;;;;1.73;1.20;;;4.80;99.90;;;;;;5002943;28;20523;-50
2021/03/14 07:58:05;;;;;;;1.73;1.20;;;4.90;99.90;;;;;;4999983;28;20863;-53
2021/03/14 08:00:34;;;;;;;1.57;1.10;;;5.00;99.90;;;;;;4995267;28;20911;-52
2021/03/14 08:03:04;;;;;;;1.77;1.47;;;5.10;99.90;;;;;;5009837;28;20455;-51
2021/03/14 08:05:52;;;;;;;1.10;0.90;;;5.10;99.90;;;;;;5003094;28;20575;-49
2021/03/14 08:08:48;;;;;;;1.43;1.17;;;5.10;99.90;;;;;;5011727;28;20446;-50
2021/03/14 08:11:27;;;;;;;1.40;1.17;;;5.10;99.90;;;;;;4980488;29;20515;-52
2021/03/14 08:13:56;;;;;;;1.57;1.07;;;5.20;99.90;;;;;;5002636;28;20697;-52
2021/03/14 08:16:25;;;;;;;4.50;1.40;;;5.20;99.90;;;;;;5015933;28;20446;-49
2021/03/14 08:18:54;;;;;;;1.60;1.40;;;5.20;99.90;;;;;;5012520;28;20472;-54
2021/03/14 08:21:41;;;;;;;2.07;1.60;;;5.30;99.90;;;;;;5018099;28;20497;-53
2021/03/14 08:24:09;;;;;;;1.50;1.23;;;5.30;99.90;;;;;;5012092;28;20542;-54
2021/03/14 08:26:38;;;;;;;1.53;1.30;;;5.40;99.90;;;;;;5008390;28;20469;-54
2021/03/14 08:29:08;;;;;;;6.53;1.27;;;5.40;99.90;;;;;;5013650;28;20447;-49
2021/03/14 08:31:46;;;;;;;6.80;1.40;;;5.40;99.90;;;;;;4999260;28;20443;-53
2021/03/14 08:34:18;;;;;;;4.77;1.33;;;5.40;99.90;;;;;;4998388;28;20870;-52
2021/03/14 08:36:51;;;;;;;2.13;1.30;;;5.40;99.90;;;;;;5010406;28;20761;-53
2021/03/14 08:39:23;;;;;;;3.60;1.33;;;5.50;99.90;;;;;;5007084;28;20955;-52
2021/03/14 08:41:54;;;;;;;2.43;1.63;;;5.50;99.90;;;;;;4992297;28;20855;-49
2021/03/14 08:44:37;;;;;;;1.60;1.13;;;5.50;99.90;;;;;;4992352;28;20442;-51
2021/03/14 08:47:07;;;;;;;4.10;1.73;;;5.50;99.90;;;;;;5004545;28;20481;-53
2021/03/14 08:49:38;;;;;;;2.50;1.53;;;5.60;99.90;;;;;;5006457;28;20496;-51
2021/03/14 08:52:11;;;;;;;1.77;1.50;;;5.50;99.90;;;;;;4995544;28;20939;-54
2021/03/14 08:54:41;;;;;;;2.83;1.40;;;5.60;99.90;;;;;;4985046;28;20787;-51
2021/03/14 08:57:11;;;;;;;2.60;1.63;;;5.50;99.90;;;;;;4991882;28;20815;-46
2021/03/14 08:59:48;;;;;;;2.73;1.50;;;5.60;99.90;;;;;;4991658;28;20474;-50
2021/03/14 09:02:24;;;;;;;3.20;1.47;;;5.60;99.90;;;;;;4996351;28;20430;-54
2021/03/14 09:04:53;;;;;;;7.60;2.33;;;5.60;99.90;;;;;;4999696;28;20450;-50
2021/03/14 09:07:23;;;;;;;3.80;1.33;;;5.60;99.90;;;;;;5000645;28;21030;-54
2021/03/14 09:09:51;;;;;;;4.00;1.83;;;5.50;99.90;;;;;;4993197;28;20749;-49
2021/03/14 09:12:22;;;;;;;4.13;1.70;;;5.50;99.90;;;;;;4985677;28;20456;-54
2021/03/14 09:14:51;;;;;;;3.20;1.40;;;5.50;99.90;;;;;;4985139;28;21140;-52
2021/03/14 09:17:22;;;;;;;2.30;1.83;;;5.50;99.90;;;;;;4985089;28;20450;-52
2021/03/14 09:19:51;;;;;;;1.63;1.53;;;5.60;99.90;;;;;;4979377;28;20896;-54
2021/03/14 09:22:22;;;;;;;2.20;1.67;;;5.50;99.90;;;;;;4980425;28;21034;-55
2021/03/14 09:24:52;;;;;;;1.70;1.10;;;5.30;99.90;;;;;;4983562;28;21171;-54
2021/03/14 09:27:22;;;;;;;1.83;1.47;;;5.20;99.90;;;;;;4985710;28;20938;-53
2021/03/14 09:29:57;;;;;;;2.53;1.73;;;5.20;99.90;;;;;;4989154;28;20827;-51
2021/03/14 09:32:33;;;;;;;1.37;0.90;;;5.10;99.90;;;;;;4993831;28;21248;-54
2021/03/14 09:35:22;;;;;;;1.77;0.97;;;5.00;99.90;;;;;;4993322;28;20489;-54
2021/03/14 09:37:54;;;;;;;2.33;0.90;;;5.00;99.90;;;;;;4990423;28;20451;-55
2021/03/14 09:40:30;;;;;;;2.33;1.43;;;5.00;99.90;;;;;;4978093;28;20796;-56
2021/03/14 09:43:14;;;;;;;1.70;1.17;;;5.00;99.90;;;;;;4978739;28;20454;-48
2021/03/14 09:45:44;;;;;;;5.70;1.57;;;5.00;99.90;;;;;;4979761;28;20501;-51
2021/03/14 09:48:15;;;;;;;4.13;1.77;;;5.00;99.90;;;;;;4981659;28;20812;-52
2021/03/14 09:50:49;;;;;;;6.03;2.30;;;5.00;99.90;;;;;;4975332;28;20800;-49
2021/03/14 09:53:22;;;;;;;7.20;2.03;;;5.10;99.90;;;;;;4984052;28;20993;-52
2021/03/14 09:55:51;;;;;;;2.67;1.87;;;5.10;99.90;;;;;;4978944;28;20936;-52
2021/03/14 09:58:21;;;;;;;3.10;1.93;;;5.30;99.90;;;;;;4980011;28;20471;-52
2021/03/14 10:00:52;;;;;;;3.00;1.77;;;5.40;99.90;;;;;;4994202;28;20451;-49
2021/03/14 10:03:23;;;;;;;6.13;2.30;;;5.50;99.90;;;;;;4985050;28;20847;-51
2021/03/14 10:05:52;;;;;;;10.40;2.07;;;5.50;99.90;;;;;;4986026;28;20834;-50
2021/03/14 10:08:23;;;;;;;3.20;2.07;;;5.50;99.90;;;;;;4991564;28;20802;-50
2021/03/14 10:10:53;;;;;;;2.33;1.57;;;5.60;99.90;;;;;;4976812;28;20447;-52
2021/03/14 10:13:24;;;;;;;4.40;1.93;;;5.60;99.90;;;;;;4985149;28;20454;-49
2021/03/14 10:15:54;;;;;;;2.93;2.40;;;5.60;99.90;;;;;;4985472;28;20549;-52
2021/03/14 10:18:27;;;;;;;2.87;2.33;;;5.70;99.90;;;;;;5014855;23;20945;-53
2021/03/14 10:21:16;;;;;;;7.77;2.57;;;5.70;99.90;;;;;;5075802;23;20504;-52
2021/03/14 10:23:46;;;;;;;2.10;1.53;;;5.70;99.90;;;;;;4985905;28;20807;-54
2021/03/14 10:26:15;;;;;;;2.80;1.50;;;5.80;99.90;;;;;;4986463;28;20811;-51
2021/03/14 10:28:47;;;;;;;6.80;2.20;;;5.80;99.90;;;;;;4977153;28;20819;-51
2021/03/14 10:31:16;;;;;;;4.27;2.10;;;5.90;99.90;;;;;;4983776;28;20474;-53
2021/03/14 10:33:45;;;;;;;1.90;1.43;;;6.00;99.90;;;;;;4991701;28;20997;-47
2021/03/14 10:36:17;;;;;;;5.40;1.90;;;6.00;99.90;;;;;;4981804;28;20765;-52
2021/03/14 10:38:47;;;;;;;5.93;3.10;;;6.00;99.90;;;;;;4986423;28;20869;-47
2021/03/14 10:41:16;;;;;;;4.50;3.30;;;6.10;99.90;;;;;;4984252;28;20447;-51
2021/03/14 10:43:48;;;;;;;5.70;2.20;;;6.10;99.90;;;;;;4979156;28;20454;-50
2021/03/14 10:46:16;;;;;;;4.50;2.67;;;6.10;99.90;;;;;;4982847;28;20804;-48
2021/03/14 10:48:47;;;;;;;3.13;2.30;;;6.20;99.90;;;;;;4993239;28;20498;-51
2021/03/14 10:51:15;;;;;;;9.20;2.50;;;6.20;99.90;;;;;;4992696;28;20827;-49
2021/03/14 10:53:42;;;;;;;6.40;2.33;;;6.20;99.90;;;;;;4992637;28;20442;-49
2021/03/14 10:56:12;;;;;;;4.57;2.37;;;6.20;99.90;;;;;;4996456;28;20438;-47
2021/03/14 10:58:41;;;;;;;2.53;1.93;;;6.30;99.90;;;;;;4997548;28;20896;-47
2021/03/14 11:01:15;;;;;;;5.67;2.73;;;6.30;99.90;;;;;;4996948;28;20508;-50
2021/03/14 11:03:43;;;;;;;2.83;2.07;;;6.50;99.90;;;;;;4993545;28;20799;-47
2021/03/14 11:06:16;;;;;;;4.77;2.00;;;6.50;99.90;;;;;;4990942;28;20822;-47
2021/03/14 11:09:03;;;;;;;4.37;1.83;;;6.50;99.90;;;;;;4989777;28;20451;-46
2021/03/14 11:11:41;;;;;;;3.77;2.30;;;6.50;99.90;;;;;;4983355;28;20904;-48
2021/03/14 11:14:26;;;;;;;5.80;3.20;;;6.60;99.90;;;;;;4984801;28;20785;-49
2021/03/14 11:17:12;;;;;;;4.90;2.73;;;6.50;99.90;;;;;;4982798;28;20971;-50
2021/03/14 11:19:40;;;;;;;4.60;2.47;;;6.50;99.90;;;;;;4992882;28;20449;-48
2021/03/14 11:22:09;;;;;;;3.30;2.50;;;6.60;99.90;;;;;;4997760;28;20494;-53
2021/03/14 11:24:39;;;;;;;4.20;2.40;;;6.60;99.90;;;;;;4990290;28;20438;-50
2021/03/14 11:27:10;;;;;;;3.93;2.57;;;6.70;99.90;;;;;;4999161;28;20577;-51
2021/03/14 11:29:39;;;;;;;5.43;2.57;;;6.70;99.90;;;;;;5010149;28;20526;-53
2021/03/14 11:32:11;;;;;;;4.90;2.30;;;6.80;99.90;;;;;;4997798;28;20872;-48
2021/03/14 11:34:39;;;;;;;6.00;3.07;;;6.90;99.90;;;;;;4986411;28;20446;-54
2021/03/14 11:37:08;;;;;;;5.00;2.27;;;7.00;99.90;;;;;;5006602;28;20477;-52
2021/03/14 11:39:37;;;;;;;3.03;2.07;;;7.10;99.90;;;;;;5004922;28;20922;-46
2021/03/14 11:42:06;;;;;;;5.00;2.43;;;7.20;99.90;;;;;;5002695;28;20929;-47
2021/03/14 11:44:36;;;;;;;3.30;1.97;;;7.40;99.90;;;;;;5003300;28;20839;-48
2021/03/14 11:47:05;;;;;;;3.80;2.30;;;7.70;99.90;;;;;;5004234;28;20540;-46
2021/03/14 11:49:33;;;;;;;2.60;1.70;;;7.80;99.90;;;;;;5005013;28;20798;-50
2021/03/14 11:52:02;;;;;;;3.53;2.63;;;7.90;99.90;;;;;;5005663;28;20463;-52
2021/03/14 11:54:30;;;;;;;4.83;2.33;;;7.80;99.90;;;;;;5008511;28;20442;-50
2021/03/14 11:56:59;;;;;;;7.83;2.67;;;7.90;99.90;;;;;;4999234;28;20476;-46
2021/03/14 11:59:28;;;;;;;5.07;3.00;;;8.00;99.90;;;;;;5005760;28;20478;-49
2021/03/14 12:01:57;;;;;;;3.00;2.03;;;8.10;99.90;;;;;;4998910;28;20905;-48
2021/03/14 12:04:25;;;;;;;3.10;1.77;;;8.30;99.90;;;;;;5000530;28;20501;-50
2021/03/14 12:06:54;;;;;;;6.00;2.50;;;8.40;99.90;;;;;;5000197;28;20550;-48
2021/03/14 12:09:22;;;;;;;4.57;2.40;;;8.60;99.90;;;;;;4995908;28;20811;-47
2021/03/14 12:11:51;;;;;;;12.20;2.40;;;8.80;99.90;;;;;;4994696;28;20791;-48
2021/03/14 12:14:20;;;;;;;4.47;2.00;;;8.90;99.90;;;;;;4993342;28;20466;-46
2021/03/14 12:16:49;;;;;;;4.00;3.20;;;8.90;99.90;;;;;;4995615;28;20459;-51
2021/03/14 12:19:18;;;;;;;3.50;2.40;;;8.60;99.90;;;;;;5001901;28;20518;-45
2021/03/14 12:21:47;;;;;;;4.40;2.10;;;8.40;99.90;;;;;;5006303;28;20496;-51
2021/03/14 12:24:15;;;;;;;6.30;3.70;;;8.30;99.90;;;;;;4998614;28;20519;-54
2021/03/14 12:26:43;;;;;;;4.97;2.63;;;8.20;99.90;;;;;;4992028;28;20830;-53
2021/03/14 12:29:12;;;;;;;6.07;2.50;;;8.20;99.90;;;;;;4992441;28;20458;-52
2021/03/14 12:31:40;;;;;;;4.47;2.20;;;8.30;99.90;;;;;;4991001;28;20975;-51
2021/03/14 12:34:08;;;;;;;3.20;1.97;;;8.20;99.90;;;;;;4991943;28;20464;-50
2021/03/14 12:36:38;;;;;;;4.60;1.87;;;8.30;99.90;;;;;;4996083;28;20789;-53
2021/03/14 12:39:08;;;;;;;5.47;2.10;;;8.30;99.90;;;;;;4994404;28;21049;-53
2021/03/14 12:41:36;;;;;;;5.80;2.03;;;8.50;99.90;;;;;;4993859;28;20457;-51
2021/03/14 12:44:04;;;;;;;3.80;2.83;;;8.60;99.90;;;;;;5000511;28;20771;-51
2021/03/14 12:46:32;;;;;;;4.10;1.33;;;8.50;99.90;;;;;;4991029;28;20833;-51
2021/03/14 12:49:01;;;;;;;3.63;2.10;;;8.40;99.90;;;;;;4997365;28;20766;-53
2021/03/14 12:51:29;;;;;;;1.93;1.77;;;8.40;99.90;;;;;;4991623;28;20458;-52
2021/03/14 12:53:58;;;;;;;8.13;1.93;;;8.40;99.90;;;;;;4991722;28;20773;-50
2021/03/14 12:56:27;;;;;;;3.60;1.90;;;8.40;99.90;;;;;;4982260;28;21002;-50
2021/03/14 12:58:57;;;;;;;3.77;1.57;;;8.40;99.90;;;;;;4980860;28;20472;-50
2021/03/14 13:01:25;;;;;;;5.53;2.47;;;8.30;99.90;;;;;;4978318;28;21890;-48
2021/03/14 13:03:52;;;;;;;5.97;2.47;;;8.30;99.90;;;;;;4983710;28;21865;-51
2021/03/14 13:06:20;;;;;;;4.23;2.43;;;8.20;99.90;;;;;;4989872;28;20556;-52
2021/03/14 13:08:49;;;;;;;3.00;1.93;;;8.20;99.90;;;;;;4989656;28;20766;-48
2021/03/14 13:11:19;;;;;;;39.27;16.60;;;8.20;99.90;;;;;;4996573;28;20467;-57
2021/03/14 13:13:47;;;;;;;3.57;2.20;;;8.10;99.90;;;;;;4993548;28;20478;-49
2021/03/14 13:16:15;;;;;;;3.43;1.57;;;7.90;99.90;;;;;;4991222;28;20474;-53